Terminal Aerodrome Forecast
Issued by NWS Quad Cities IA IL

Home | Current Version | Previous Version | Text Only | Print | Product List | Glossary On
Versions: 1 2 3 4 5 6 7 8 9 10 11 12 13 14 15
000
FTUS43 KDVN 251100
TAFMLI
TAF
KMLI 251124Z 2512/2612 25011KT P6SM OVC019
     FM251500 19012KT P6SM BKN250
     FM252200 17010KT P6SM BKN200=

USA.gov is the U.S. government's official web portal to all federal, state and local government web resources and services.